Time;durP1;ratioP1;P1;durP2;ratioP2;P2;SDS_P1;SDS_P2;PMS_P1;PMS_P2;Temp;Humidity;BMP_temperature;BMP_pressure;BME280_temperature;BME280_humidity;BME280_pressure;Samples;Min_cycle;Max_cycle;Signal;HPM_P1;HPM_P2
2023/12/15 00:01:46;;;;;;;3.95;3.35;;;;;;;21.84;43.26;101663.47;4471387;28;20078;-50
2023/12/15 00:03:56;;;;;;;3.35;3.05;;;;;;;21.89;43.35;101654.66;4471257;28;20043;-53
2023/12/15 00:06:07;;;;;;;3.67;3.22;;;;;;;21.93;43.51;101664.25;4471135;28;20093;-50
2023/12/15 00:08:18;;;;;;;3.50;3.20;;;;;;;21.94;43.11;101660.19;4470962;28;20077;-52
2023/12/15 00:10:28;;;;;;;4.13;3.22;;;;;;;21.94;43.35;101660.19;4469911;28;20038;-53
2023/12/15 00:12:39;;;;;;;4.80;3.42;;;;;;;21.89;43.18;101669.03;4471687;28;20616;-53
2023/12/15 00:14:49;;;;;;;3.50;3.00;;;;;;;21.90;43.31;101670.69;4471206;28;20575;-50
2023/12/15 00:16:59;;;;;;;3.97;3.10;;;;;;;21.94;43.03;101673.72;4471569;28;20073;-52
2023/12/15 00:19:11;;;;;;;4.43;3.20;;;;;;;21.88;43.25;101670.19;4470956;28;20038;-50
2023/12/15 00:21:23;;;;;;;5.20;3.15;;;;;;;21.89;43.04;101679.66;4471175;28;20046;-50
2023/12/15 00:23:34;;;;;;;3.50;3.10;;;;;;;21.86;43.29;101684.09;4471173;28;20058;-51
2023/12/15 00:25:44;;;;;;;3.58;3.22;;;;;;;21.91;43.18;101688.78;4471424;28;20102;-50
2023/12/15 00:27:54;;;;;;;3.90;3.50;;;;;;;21.84;43.42;101672.09;4470427;28;26199;-53
2023/12/15 00:30:05;;;;;;;3.50;3.13;;;;;;;21.89;43.27;101686.25;4470837;28;20107;-51
2023/12/15 00:32:16;;;;;;;3.92;3.13;;;;;;;21.89;43.32;101685.41;4471132;28;20061;-49
2023/12/15 00:34:26;;;;;;;3.55;3.10;;;;;;;21.86;43.09;101675.47;4470933;28;20051;-51
2023/12/15 00:36:36;;;;;;;2.92;2.63;;;;;;;21.85;43.54;101685.25;4470681;28;20066;-51
2023/12/15 00:38:47;;;;;;;3.47;2.83;;;;;;;21.88;43.08;101690.31;4469428;28;20042;-51
2023/12/15 00:40:57;;;;;;;3.65;3.05;;;;;;;21.84;43.38;101689.34;4470321;28;20102;-50
2023/12/15 00:43:08;;;;;;;3.33;2.90;;;;;;;21.87;42.99;101690.66;4470207;28;20035;-50
2023/12/15 00:45:18;;;;;;;4.05;2.92;;;;;;;21.82;43.32;101691.72;4470377;28;20043;-51
2023/12/15 00:47:29;;;;;;;3.97;2.95;;;;;;;21.83;43.12;101687.66;4470641;28;20046;-50
2023/12/15 00:49:39;;;;;;;3.00;2.67;;;;;;;21.82;43.47;101703.22;4471264;28;20093;-50
2023/12/15 00:51:49;;;;;;;3.15;2.85;;;;;;;21.79;43.22;101703.06;4468977;28;20118;-50
2023/12/15 00:54:00;;;;;;;3.67;2.92;;;;;;;21.78;43.22;101696.50;4470972;28;20423;-49
2023/12/15 00:56:10;;;;;;;3.15;2.83;;;;;;;21.75;43.47;101697.19;4470836;28;20861;-51
2023/12/15 00:58:21;;;;;;;3.42;3.13;;;;;;;21.79;43.54;101703.06;4470095;28;20038;-50
2023/12/15 01:00:31;;;;;;;3.63;2.88;;;;;;;21.77;43.36;101705.47;4470291;28;20051;-51
2023/12/15 01:02:42;;;;;;;3.88;2.78;;;;;;;21.76;43.26;101698.88;4470349;28;20043;-50
2023/12/15 01:04:52;;;;;;;3.33;2.60;;;;;;;21.80;43.14;101704.75;4468565;28;20089;-50
2023/12/15 01:07:03;;;;;;;3.20;2.70;;;;;;;21.80;43.20;101710.50;4470213;28;20094;-51
2023/12/15 01:09:13;;;;;;;3.72;3.17;;;;;;;21.77;43.23;101706.28;4470017;28;20038;-50
2023/12/15 01:11:23;;;;;;;4.68;3.20;;;;;;;21.78;43.27;101718.63;4470210;28;20114;-50
2023/12/15 01:13:34;;;;;;;3.67;2.72;;;;;;;21.76;43.28;101715.25;4470083;28;20526;-50
2023/12/15 01:15:44;;;;;;;3.47;2.90;;;;;;;21.76;43.27;101727.59;4470400;28;20038;-51
2023/12/15 01:17:55;;;;;;;3.70;3.10;;;;;;;21.75;43.60;101711.56;4470078;28;20109;-52
2023/12/15 01:20:06;;;;;;;6.18;3.17;;;;;;;21.75;43.12;101725.94;4470642;28;20045;-51
2023/12/15 01:22:16;;;;;;;3.50;3.20;;;;;;;21.79;43.07;101720.31;4484290;28;20046;-50
2023/12/15 01:24:27;;;;;;;3.35;2.92;;;;;;;21.77;43.31;101726.41;4469859;28;20030;-51
2023/12/15 01:26:37;;;;;;;3.35;2.80;;;;;;;21.78;43.09;101735.88;4469681;28;20840;-53
2023/12/15 01:28:48;;;;;;;3.20;2.67;;;;;;;21.80;43.37;101731.44;4470383;28;20488;-50
2023/12/15 01:31:01;;;;;;;3.30;2.95;;;;;;;21.80;43.05;101734.31;4470155;28;20336;-51
2023/12/15 01:33:11;;;;;;;3.67;2.85;;;;;;;21.80;43.08;101736.38;4468570;28;20579;-51
2023/12/15 01:35:22;;;;;;;3.40;2.95;;;;;;;21.81;43.42;101735.19;4469629;28;20074;-51
2023/12/15 01:37:32;;;;;;;3.78;2.78;;;;;;;21.79;42.99;101744.16;4470122;28;20027;-51
2023/12/15 01:39:42;;;;;;;3.70;3.10;;;;;;;21.79;43.02;101749.91;4469875;28;20096;-50
2023/12/15 01:41:53;;;;;;;3.20;2.80;;;;;;;21.79;42.91;101749.91;4469920;28;20430;-51
2023/12/15 01:44:03;;;;;;;3.20;2.80;;;;;;;21.77;42.96;101757.19;4469687;28;20043;-50
2023/12/15 01:46:14;;;;;;;3.58;3.10;;;;;;;21.75;43.31;101748.91;4469534;28;20610;-50
2023/12/15 01:48:25;;;;;;;3.15;2.78;;;;;;;21.76;43.33;101744.00;4441027;28;20071;-51
2023/12/15 01:50:35;;;;;;;3.20;2.65;;;;;;;21.77;43.22;101749.41;4470027;28;20792;-50
2023/12/15 01:52:46;;;;;;;3.45;2.72;;;;;;;21.74;43.48;101752.94;4469501;28;20053;-49
2023/12/15 01:54:56;;;;;;;3.20;2.55;;;;;;;21.75;43.00;101753.78;4469677;28;20109;-50
2023/12/15 01:57:07;;;;;;;3.63;2.85;;;;;;;21.76;43.18;101759.22;4469210;28;20043;-50
2023/12/15 01:59:18;;;;;;;3.10;2.80;;;;;;;21.78;43.04;101756.00;4469409;28;20045;-50
2023/12/15 02:01:28;;;;;;;1.83;1.73;;;;;;;21.72;43.30;101755.31;4469412;28;20043;-50
2023/12/15 02:03:39;;;;;;;3.00;2.30;;;;;;;21.73;43.32;101748.38;4469362;28;21012;-50
2023/12/15 02:05:50;;;;;;;2.80;2.58;;;;;;;21.77;43.19;101751.44;4469740;28;20130;-52
2023/12/15 02:08:00;;;;;;;3.13;2.70;;;;;;;21.75;43.38;101751.78;4469537;28;20042;-53
2023/12/15 02:10:11;;;;;;;3.60;2.60;;;;;;;21.77;42.83;101748.56;4471613;28;20542;-54
2023/12/15 02:12:22;;;;;;;3.72;2.70;;;;;;;21.77;43.23;101754.31;4469677;28;20094;-52
2023/12/15 02:14:32;;;;;;;3.00;2.40;;;;;;;21.77;42.79;101751.44;4469544;28;20402;-55
2023/12/15 02:16:43;;;;;;;3.58;2.65;;;;;;;21.79;43.02;101744.16;4469566;28;20035;-54
2023/12/15 02:18:53;;;;;;;2.92;2.35;;;;;;;21.80;42.91;101756.50;4468929;28;20034;-51
2023/12/15 02:21:04;;;;;;;1.10;1.00;;;;;;;21.77;42.05;101757.19;4469712;28;20086;-54
2023/12/15 02:23:14;;;;;;;3.60;2.70;;;;;;;21.81;42.83;101752.41;4469415;28;20504;-55
2023/12/15 02:25:25;;;;;;;3.30;2.80;;;;;;;21.77;43.16;101755.16;4469777;28;20083;-51
2023/12/15 02:27:35;;;;;;;3.33;2.67;;;;;;;21.82;43.21;101754.94;4469558;28;20053;-55
2023/12/15 02:29:46;;;;;;;3.63;2.78;;;;;;;21.81;42.89;101756.16;4481979;28;20034;-50
2023/12/15 02:31:56;;;;;;;3.53;2.53;;;;;;;21.86;42.70;101760.84;4469893;28;20411;-55
2023/12/15 02:34:07;;;;;;;3.53;2.47;;;;;;;21.84;42.90;101769.81;4469557;28;20053;-53
2023/12/15 02:36:22;;;;;;;3.38;2.40;;;;;;;21.81;43.05;101775.41;4469470;28;20047;-54
2023/12/15 02:38:32;;;;;;;4.90;2.55;;;;;;;21.77;42.98;101769.50;4469338;28;20049;-50
2023/12/15 02:40:44;;;;;;;3.00;2.65;;;;;;;21.80;43.16;101762.25;4469372;28;20034;-54
2023/12/15 02:42:54;;;;;;;2.90;2.50;;;;;;;21.82;43.07;101762.72;4467901;28;20110;-54
2023/12/15 02:45:06;;;;;;;4.45;2.65;;;;;;;21.83;42.71;101761.53;4469738;28;21153;-51
2023/12/15 02:47:17;;;;;;;3.10;2.40;;;;;;;21.80;43.21;101762.25;4469319;28;20042;-51
2023/12/15 02:49:27;;;;;;;2.90;2.35;;;;;;;21.84;42.99;101780.47;4469159;28;20554;-55
2023/12/15 02:51:38;;;;;;;2.85;2.10;;;;;;;21.85;43.16;101770.66;4469327;28;20031;-50
2023/12/15 02:53:49;;;;;;;2.72;2.42;;;;;;;21.85;42.95;101771.50;4483665;28;20184;-53
2023/12/15 02:55:59;;;;;;;3.80;2.47;;;;;;;21.84;42.80;101772.69;4468298;28;20039;-53
2023/12/15 02:58:10;;;;;;;2.75;2.45;;;;;;;21.85;42.80;101765.75;4469025;28;20046;-52
2023/12/15 03:00:20;;;;;;;3.42;2.50;;;;;;;21.86;42.77;101776.06;4471682;28;20052;-51
2023/12/15 03:02:31;;;;;;;3.35;2.40;;;;;;;21.87;42.80;101771.16;4470977;28;20039;-55
2023/12/15 03:04:41;;;;;;;4.32;2.72;;;;;;;21.81;43.04;101770.53;4472306;28;20070;-51
2023/12/15 03:06:54;;;;;;;2.80;2.40;;;;;;;21.80;43.15;101770.88;4472418;28;20500;-50
2023/12/15 03:09:04;;;;;;;2.83;2.42;;;;;;;21.79;42.99;101778.63;4471701;28;20066;-51
2023/12/15 03:11:15;;;;;;;3.17;2.33;;;;;;;21.76;42.56;101779.34;4474313;28;20070;-55
2023/12/15 03:13:25;;;;;;;3.78;2.38;;;;;;;21.73;43.17;101787.75;4471303;28;20149;-50
2023/12/15 03:15:36;;;;;;;3.88;2.40;;;;;;;21.74;43.01;101784.53;4472008;28;20051;-51
2023/12/15 03:17:49;;;;;;;3.00;2.47;;;;;;;21.73;43.26;101784.88;4471614;28;20034;-54
2023/12/15 03:19:59;;;;;;;2.25;1.80;;;;;;;21.49;37.89;101779.78;4471888;28;24878;-50
2023/12/15 03:22:09;;;;;;;4.63;3.65;;;;;;;21.31;29.40;101783.91;4472292;28;20042;-50
2023/12/15 03:24:20;;;;;;;5.13;3.65;;;;;;;21.23;29.05;101783.94;4472083;28;20049;-51
2023/12/15 03:26:30;;;;;;;5.18;3.78;;;;;;;21.16;29.00;101792.25;4472077;28;20031;-50
2023/12/15 03:28:40;;;;;;;4.50;3.60;;;;;;;21.11;29.05;101796.13;4471818;28;20491;-50
2023/12/15 03:30:51;;;;;;;5.45;3.72;;;;;;;21.07;29.48;101797.16;4471956;28;20456;-52
2023/12/15 03:33:01;;;;;;;4.80;3.72;;;;;;;21.04;29.39;101795.81;4471757;28;20042;-51
2023/12/15 03:35:12;;;;;;;4.85;3.28;;;;;;;21.02;29.82;101792.47;4472112;28;20038;-50
2023/12/15 03:37:22;;;;;;;5.18;3.55;;;;;;;21.00;30.06;101803.44;4472071;28;20035;-54
2023/12/15 03:39:32;;;;;;;4.65;3.45;;;;;;;20.99;30.30;101798.03;4472262;28;20050;-51
2023/12/15 03:41:43;;;;;;;5.10;3.60;;;;;;;20.97;30.29;101801.25;4486451;28;20431;-49
2023/12/15 03:43:53;;;;;;;4.32;3.42;;;;;;;20.96;29.97;101808.19;4471292;28;23817;-50
2023/12/15 03:46:04;;;;;;;4.72;3.45;;;;;;;20.94;30.22;101801.03;4472010;28;20050;-51
2023/12/15 03:48:15;;;;;;;4.53;3.47;;;;;;;20.94;30.42;101807.63;4471630;28;20046;-52
2023/12/15 03:50:25;;;;;;;4.60;3.58;;;;;;;20.93;30.34;101805.94;4471735;28;20504;-50
2023/12/15 03:52:35;;;;;;;4.35;3.45;;;;;;;20.93;30.73;101811.66;4471714;28;20039;-49
2023/12/15 03:54:46;;;;;;;4.30;3.10;;;;;;;20.92;30.44;101815.75;4471399;28;20030;-50
2023/12/15 03:56:58;;;;;;;5.13;3.30;;;;;;;20.92;30.46;101815.75;4470983;28;20043;-51
2023/12/15 03:59:08;;;;;;;4.85;3.15;;;;;;;20.92;30.53;101818.59;4471329;28;20039;-49
2023/12/15 04:01:19;;;;;;;4.53;3.30;;;;;;;20.91;30.82;101818.94;4471595;28;20408;-51
2023/12/15 04:03:29;;;;;;;4.95;3.42;;;;;;;20.90;30.66;101812.34;4471428;28;20039;-52
2023/12/15 04:05:39;;;;;;;4.80;3.50;;;;;;;20.90;31.24;101826.72;4471353;28;20373;-51
2023/12/15 04:07:50;;;;;;;2.75;2.15;;;;;;;21.04;42.15;101827.38;4470896;28;20128;-49
2023/12/15 04:10:00;;;;;;;3.10;2.45;;;;;;;21.31;42.78;101829.84;4485892;28;20050;-51
2023/12/15 04:12:11;;;;;;;2.83;2.10;;;;;;;21.38;42.96;101818.69;4470176;28;20043;-54
2023/12/15 04:14:21;;;;;;;2.95;2.28;;;;;;;21.46;43.13;101819.84;4471188;28;20054;-51
2023/12/15 04:16:32;;;;;;;2.65;2.20;;;;;;;21.48;42.96;101817.47;4471466;28;20058;-49
2023/12/15 04:18:42;;;;;;;2.90;2.15;;;;;;;21.53;42.76;101820.16;4471173;28;20119;-50
2023/12/15 04:20:53;;;;;;;2.78;2.20;;;;;;;21.57;42.61;101816.25;4469497;28;26735;-50
2023/12/15 04:23:03;;;;;;;1.85;1.38;;;;;;;21.32;32.98;101820.06;4471047;28;22227;-52
2023/12/15 04:25:14;;;;;;;5.38;3.10;;;;;;;21.15;32.11;101823.00;4486073;28;20046;-49
2023/12/15 04:27:24;;;;;;;3.90;3.00;;;;;;;21.08;31.58;101819.78;4471133;28;20491;-50
2023/12/15 04:29:34;;;;;;;4.78;3.10;;;;;;;21.02;31.06;101829.78;4471013;28;20140;-50
2023/12/15 04:31:45;;;;;;;4.25;3.20;;;;;;;20.98;31.45;101828.75;4471168;28;20035;-52
2023/12/15 04:33:55;;;;;;;4.28;3.10;;;;;;;20.96;31.30;101836.88;4470871;28;20445;-51
2023/12/15 04:36:10;;;;;;;3.80;2.20;;;;;;;21.22;43.01;101825.31;4470981;28;20034;-51
2023/12/15 04:38:21;;;;;;;3.67;2.10;;;;;;;21.33;43.21;101836.09;4470660;28;20078;-49
2023/12/15 04:40:31;;;;;;;2.47;2.20;;;;;;;21.44;42.86;101843.16;4470519;28;24942;-50
2023/12/15 04:42:42;;;;;;;2.50;2.15;;;;;;;21.49;43.05;101837.22;4471086;28;20039;-50
2023/12/15 04:44:52;;;;;;;2.50;2.00;;;;;;;21.51;42.99;101849.22;4471324;28;20046;-50
2023/12/15 04:47:03;;;;;;;3.40;2.05;;;;;;;21.56;42.61;101843.31;4470864;28;20046;-49
2023/12/15 04:49:13;;;;;;;2.80;2.00;;;;;;;21.64;43.10;101853.06;4470966;28;20117;-51
2023/12/15 04:51:24;;;;;;;2.00;1.80;;;;;;;21.57;40.91;101856.47;4461178;28;22483;-51
2023/12/15 04:53:34;;;;;;;2.75;2.03;;;;;;;21.61;43.02;101857.44;4470809;28;20142;-50
2023/12/15 04:55:44;;;;;;;2.90;2.00;;;;;;;21.58;43.04;101852.41;4470918;28;20153;-49
2023/12/15 04:57:55;;;;;;;2.75;2.30;;;;;;;21.58;43.14;101852.41;4470662;28;20098;-53
2023/12/15 05:00:07;;;;;;;3.50;2.13;;;;;;;21.61;42.80;101850.88;4470054;28;22689;-51
2023/12/15 05:02:17;;;;;;;2.63;2.40;;;;;;;21.63;42.63;101860.84;4470250;28;20597;-50
2023/12/15 05:04:28;;;;;;;3.38;1.90;;;;;;;21.62;42.81;101864.91;4470642;28;20046;-51
2023/12/15 05:06:38;;;;;;;2.85;1.85;;;;;;;21.61;42.73;101851.72;4470468;28;20547;-50
2023/12/15 05:08:53;;;;;;;3.50;2.10;;;;;;;21.63;42.89;101857.97;4470704;28;20109;-50
2023/12/15 05:11:04;;;;;;;3.42;2.10;;;;;;;21.62;42.83;101852.56;4470508;28;20230;-49
2023/12/15 05:13:14;;;;;;;2.17;1.75;;;;;;;21.58;41.58;101860.19;4470321;28;20226;-51
2023/12/15 05:15:24;;;;;;;2.72;2.03;;;;;;;21.62;42.92;101853.41;4470605;28;20046;-51
2023/12/15 05:17:35;;;;;;;2.67;2.10;;;;;;;21.62;43.06;101853.41;4470025;28;20042;-49
2023/12/15 05:19:45;;;;;;;3.05;2.17;;;;;;;21.60;43.20;101864.41;4470501;28;20173;-50
2023/12/15 05:21:55;;;;;;;3.03;2.08;;;;;;;21.65;43.09;101867.09;4471100;28;20050;-54
2023/12/15 05:24:06;;;;;;;2.78;2.10;;;;;;;21.65;42.79;101857.63;4469123;28;20046;-49
2023/12/15 05:26:16;;;;;;;2.85;2.17;;;;;;;21.67;43.00;101856.09;4470121;28;20515;-50
2023/12/15 05:28:27;;;;;;;2.60;1.83;;;;;;;21.69;42.68;101852.88;4470079;28;20499;-52
2023/12/15 05:30:37;;;;;;;2.90;1.75;;;;;;;21.70;42.83;101864.03;4469701;28;20645;-54
2023/12/15 05:32:47;;;;;;;2.22;1.90;;;;;;;21.68;42.83;101863.53;4468162;28;20559;-55
2023/12/15 05:34:58;;;;;;;2.63;1.88;;;;;;;21.67;43.02;101861.00;4468897;28;20085;-51
2023/12/15 05:37:09;;;;;;;2.33;2.00;;;;;;;21.69;42.90;101864.38;4469714;28;20105;-53
2023/12/15 05:39:19;;;;;;;2.17;1.90;;;;;;;21.68;42.93;101863.53;4470412;28;20049;-52
2023/12/15 05:41:29;;;;;;;2.72;2.03;;;;;;;21.64;43.11;101871.16;4470035;28;20518;-53
2023/12/15 05:43:40;;;;;;;2.28;2.08;;;;;;;21.68;42.80;101869.28;4469954;28;20035;-51
2023/12/15 05:45:51;;;;;;;2.70;1.80;;;;;;;21.70;43.00;101884.16;4469942;28;20129;-53
2023/12/15 05:48:01;;;;;;;2.10;1.90;;;;;;;21.71;42.86;101880.06;4469751;28;20050;-54
2023/12/15 05:50:12;;;;;;;2.25;1.90;;;;;;;21.70;42.74;101889.03;4470381;28;20058;-53
2023/12/15 05:52:22;;;;;;;4.00;1.95;;;;;;;21.72;42.95;101896.13;4468246;28;20042;-50
2023/12/15 05:54:32;;;;;;;2.45;1.80;;;;;;;21.76;42.72;101896.31;4469929;28;20047;-51
2023/12/15 05:56:43;;;;;;;3.20;2.20;;;;;;;21.76;42.72;101894.28;4469948;28;20145;-50
2023/12/15 05:58:53;;;;;;;3.22;1.83;;;;;;;21.76;42.57;101905.78;4469397;28;20091;-50
2023/12/15 06:01:04;;;;;;;3.08;1.95;;;;;;;21.76;42.63;101904.94;4469655;28;20545;-50
2023/12/15 06:03:17;;;;;;;2.03;1.83;;;;;;;21.74;42.65;101911.00;4469980;28;20039;-51
2023/12/15 06:05:28;;;;;;;3.13;2.00;;;;;;;21.77;42.82;101913.22;4469769;28;20574;-52
2023/12/15 06:07:40;;;;;;;2.22;1.73;;;;;;;21.80;42.50;101912.50;4469194;28;20790;-53
2023/12/15 06:09:50;;;;;;;2.15;1.65;;;;;;;21.76;42.61;101923.03;4484419;28;21195;-51
2023/12/15 06:12:00;;;;;;;2.95;2.00;;;;;;;21.74;42.28;101919.63;4469912;28;20105;-52
2023/12/15 06:14:11;;;;;;;2.33;1.80;;;;;;;21.78;42.59;101925.56;4469676;28;20407;-50
2023/12/15 06:16:21;;;;;;;3.10;2.00;;;;;;;21.81;42.32;101933.50;4469497;28;20041;-50
2023/12/15 06:18:32;;;;;;;2.20;1.70;;;;;;;21.75;37.69;101927.09;4468144;28;20038;-50
2023/12/15 06:20:42;;;;;;;2.90;1.90;;;;;;;21.79;42.71;101932.97;4469569;28;20504;-50
2023/12/15 06:22:53;;;;;;;2.20;1.88;;;;;;;21.79;42.49;101928.09;4469384;28;20099;-51
2023/12/15 06:25:04;;;;;;;3.00;1.92;;;;;;;21.80;42.30;101929.75;4469266;28;20452;-50
2023/12/15 06:27:15;;;;;;;3.45;1.95;;;;;;;21.83;42.52;101931.97;4469205;28;20066;-51
2023/12/15 06:29:25;;;;;;;2.42;1.83;;;;;;;21.81;42.24;101928.59;4469516;28;20034;-51
2023/12/15 06:31:35;;;;;;;3.30;2.03;;;;;;;21.78;42.38;101935.03;4468270;28;20086;-51
2023/12/15 06:33:46;;;;;;;3.13;2.00;;;;;;;21.78;42.59;101931.31;4469781;28;20484;-50
2023/12/15 06:35:56;;;;;;;2.75;1.70;;;;;;;21.78;42.86;101937.91;4472881;28;20039;-50
2023/12/15 06:38:06;;;;;;;2.45;1.85;;;;;;;21.76;42.73;101939.41;4472312;28;29152;-50
2023/12/15 06:40:17;;;;;;;2.15;1.52;;;;;;;21.74;39.96;101933.16;4473016;28;20043;-51
2023/12/15 06:42:29;;;;;;;2.40;1.60;;;;;;;21.76;42.48;101946.03;4472440;28;20062;-50
2023/12/15 06:44:40;;;;;;;3.47;1.95;;;;;;;21.72;42.89;101956.47;4472937;28;20058;-50
2023/12/15 06:46:51;;;;;;;1.85;1.58;;;;;;;21.75;42.71;101950.09;4472899;28;20508;-51
2023/12/15 06:49:01;;;;;;;2.47;1.80;;;;;;;21.72;42.46;101950.72;4471753;28;20046;-52
2023/12/15 06:51:12;;;;;;;2.15;1.80;;;;;;;21.70;42.45;101953.13;4471161;28;20035;-51
2023/12/15 06:53:22;;;;;;;2.35;1.70;;;;;;;21.75;42.75;101958.72;4472774;28;20039;-54
2023/12/15 06:55:32;;;;;;;2.70;1.77;;;;;;;21.75;42.32;101973.09;4473057;28;20506;-50
2023/12/15 06:57:43;;;;;;;2.20;1.80;;;;;;;21.73;42.39;101969.66;4462984;28;20058;-50
2023/12/15 06:59:53;;;;;;;2.53;1.73;;;;;;;21.76;42.30;101974.75;4472775;28;20043;-50
2023/12/15 07:02:04;;;;;;;2.05;1.63;;;;;;;21.73;42.48;101984.03;4472313;28;20085;-50
2023/12/15 07:04:14;;;;;;;3.00;1.67;;;;;;;21.71;42.49;101988.41;4472758;28;20049;-54
2023/12/15 07:06:24;;;;;;;2.92;1.70;;;;;;;21.73;42.70;102000.44;4472043;28;20047;-51
2023/12/15 07:08:35;;;;;;;2.63;1.77;;;;;;;21.70;42.87;101999.09;4472178;28;20057;-53
2023/12/15 07:10:45;;;;;;;2.35;1.90;;;;;;;21.67;42.54;101993.19;4472323;28;20094;-54
2023/12/15 07:12:56;;;;;;;1.75;1.58;;;;;;;21.68;42.69;101998.59;4461541;28;20180;-55
2023/12/15 07:15:07;;;;;;;2.90;1.70;;;;;;;21.71;42.89;101997.91;4472460;28;20074;-57
2023/12/15 07:17:17;;;;;;;2.53;1.90;;;;;;;21.67;42.55;101996.91;4472435;28;20125;-53
2023/12/15 07:19:28;;;;;;;2.55;1.52;;;;;;;21.67;42.98;102002.66;4472281;28;20134;-51
2023/12/15 07:21:38;;;;;;;2.03;1.67;;;;;;;21.65;42.87;102012.78;4471055;28;20480;-53
2023/12/15 07:23:49;;;;;;;1.85;1.67;;;;;;;21.65;42.88;101999.25;4472301;28;20523;-51
2023/12/15 07:25:59;;;;;;;1.95;1.73;;;;;;;21.71;42.57;102008.53;4471931;28;20472;-50
2023/12/15 07:28:10;;;;;;;2.22;1.70;;;;;;;21.68;42.84;102012.94;4471443;28;20178;-51
2023/12/15 07:30:21;;;;;;;3.13;1.70;;;;;;;21.69;42.87;102010.94;4471979;28;20047;-51
2023/12/15 07:32:31;;;;;;;2.85;1.85;;;;;;;21.70;42.76;102010.59;4472328;28;20043;-51
2023/12/15 07:34:42;;;;;;;2.42;1.70;;;;;;;21.69;42.91;102008.06;4471979;28;20174;-49
2023/12/15 07:36:52;;;;;;;3.00;1.73;;;;;;;21.69;42.53;102003.13;4471935;28;20037;-52
2023/12/15 07:39:03;;;;;;;1.90;1.70;;;;;;;21.66;42.79;102014.50;4472016;28;20583;-50
2023/12/15 07:41:13;;;;;;;2.55;1.80;;;;;;;21.71;42.64;102014.28;4471609;28;20492;-49
2023/12/15 07:43:24;;;;;;;2.10;1.80;;;;;;;21.71;42.87;102022.91;4471548;28;20118;-49
2023/12/15 07:45:34;;;;;;;1.95;1.50;;;;;;;21.70;42.63;102027.84;4470972;28;20134;-50
2023/12/15 07:47:44;;;;;;;2.70;1.42;;;;;;;21.71;42.49;102023.75;4471584;28;20060;-51
2023/12/15 07:49:55;;;;;;;1.83;1.50;;;;;;;21.70;41.85;102042.19;4471054;28;20119;-49
2023/12/15 07:52:05;;;;;;;1.63;1.25;;;;;;;21.68;38.60;102047.44;4470175;28;20054;-50
2023/12/15 07:54:18;;;;;;;1.20;1.02;;;;;;;21.65;39.17;102053.88;4471550;28;20440;-52
2023/12/15 07:56:29;;;;;;;1.40;1.30;;;;;;;21.63;41.07;102050.47;4471167;28;20609;-50
2023/12/15 07:58:39;;;;;;;1.60;1.50;;;;;;;21.52;41.42;102060.63;4471243;28;20606;-50
2023/12/15 08:00:51;;;;;;;2.00;1.75;;;;;;;21.52;43.00;102066.38;4471482;28;20047;-50
2023/12/15 08:03:02;;;;;;;2.28;2.03;;;;;;;21.54;42.91;102064.00;4471331;28;20049;-49
2023/12/15 08:05:12;;;;;;;2.72;1.80;;;;;;;21.50;44.29;102062.97;4471565;28;20070;-54
2023/12/15 08:07:23;;;;;;;3.08;2.17;;;;;;;21.52;45.26;102059.78;4471949;28;20047;-51
2023/12/15 08:09:33;;;;;;;2.90;1.80;;;;;;;21.47;45.98;102057.09;4471564;28;20514;-50
2023/12/15 08:11:43;;;;;;;1.83;1.58;;;;;;;21.49;45.66;102057.56;4471486;28;20053;-50
2023/12/15 08:13:54;;;;;;;2.42;1.92;;;;;;;21.46;45.98;102058.25;4465155;28;20042;-49
2023/12/15 08:16:05;;;;;;;2.58;2.03;;;;;;;21.44;46.06;102060.63;4454029;28;20121;-50
2023/12/15 08:18:15;;;;;;;2.70;2.05;;;;;;;21.41;45.49;102059.28;4459954;28;20039;-52
2023/12/15 08:20:26;;;;;;;1.90;1.63;;;;;;;21.43;43.93;102071.28;4462933;28;20063;-53
2023/12/15 08:22:36;;;;;;;2.90;2.10;;;;;;;21.38;45.19;102074.31;4471377;28;20031;-50
2023/12/15 08:24:47;;;;;;;2.80;2.08;;;;;;;21.38;45.48;102077.19;4470979;28;20057;-51
2023/12/15 08:26:58;;;;;;;2.83;2.22;;;;;;;21.38;45.26;102084.94;4462796;28;21228;-54
2023/12/15 08:29:08;;;;;;;2.75;2.20;;;;;;;21.38;45.35;102093.56;4471223;28;20039;-54
2023/12/15 08:31:18;;;;;;;2.42;2.15;;;;;;;21.37;45.60;102098.50;4471161;28;20034;-54
2023/12/15 08:33:29;;;;;;;3.13;2.25;;;;;;;21.36;45.67;102101.69;4471326;28;20050;-54
2023/12/15 08:35:39;;;;;;;2.65;2.30;;;;;;;21.35;45.38;102105.72;4471314;28;20038;-49
2023/12/15 08:37:50;;;;;;;3.38;2.30;;;;;;;21.35;44.76;102115.22;4469298;28;20572;-52
2023/12/15 08:40:00;;;;;;;2.78;2.25;;;;;;;21.35;45.16;102117.22;4470680;28;20121;-51
2023/12/15 08:42:11;;;;;;;2.92;2.20;;;;;;;21.33;45.21;102119.56;4470638;28;20093;-50
2023/12/15 08:44:21;;;;;;;3.08;2.10;;;;;;;21.32;45.24;102115.88;4472260;28;20125;-54
2023/12/15 08:46:32;;;;;;;2.33;2.05;;;;;;;21.34;45.30;102122.16;4470823;28;20042;-51
2023/12/15 08:48:42;;;;;;;2.90;2.30;;;;;;;21.33;44.84;102113.84;4471094;28;20038;-50
2023/12/15 08:50:53;;;;;;;2.92;2.28;;;;;;;21.32;45.32;102115.88;4446299;28;20051;-53
2023/12/15 08:53:04;;;;;;;3.10;2.40;;;;;;;21.32;44.80;102123.63;4470428;28;20047;-49
2023/12/15 08:55:14;;;;;;;2.75;2.20;;;;;;;21.32;44.40;102135.13;4468949;28;20050;-53
2023/12/15 08:57:24;;;;;;;4.18;2.50;;;;;;;21.33;45.08;102142.56;4469452;28;20164;-50
2023/12/15 08:59:35;;;;;;;2.35;1.92;;;;;;;21.33;44.85;102137.66;4470839;28;20042;-50
2023/12/15 09:01:46;;;;;;;2.95;2.30;;;;;;;21.33;44.79;102143.41;4469887;28;20566;-50
2023/12/15 09:03:56;;;;;;;2.70;2.10;;;;;;;21.33;44.50;102143.41;4469951;28;20109;-54
2023/12/15 09:06:10;;;;;;;2.78;2.10;;;;;;;21.33;45.20;102154.03;4470094;28;20039;-52
2023/12/15 09:08:21;;;;;;;3.05;2.45;;;;;;;21.36;44.77;102159.97;4468505;28;20097;-49
2023/12/15 09:10:34;;;;;;;2.60;2.10;;;;;;;21.38;44.72;102171.97;4460863;28;20067;-50
2023/12/15 09:12:45;;;;;;;3.45;2.40;;;;;;;21.40;45.09;102178.25;4470404;28;20216;-50
2023/12/15 09:14:56;;;;;;;2.40;2.03;;;;;;;21.37;44.65;102167.44;4468818;28;20946;-50
2023/12/15 09:17:11;;;;;;;3.58;2.33;;;;;;;21.39;44.65;102178.56;4470376;28;20042;-50
2023/12/15 09:19:24;;;;;;;2.78;2.15;;;;;;;21.39;44.52;102182.28;4470510;28;20038;-52
2023/12/15 09:21:35;;;;;;;2.45;2.00;;;;;;;21.40;43.07;102189.72;4470135;28;20082;-51
2023/12/15 09:23:46;;;;;;;3.40;2.22;;;;;;;21.39;44.23;102188.03;4470243;28;20121;-51
2023/12/15 09:25:57;;;;;;;2.15;1.90;;;;;;;21.38;44.30;102197.81;4470344;28;20089;-53
2023/12/15 09:28:09;;;;;;;3.38;2.55;;;;;;;21.41;44.88;102208.66;4470087;28;20563;-49
2023/12/15 09:30:19;;;;;;;4.30;3.03;;;;;;;21.42;44.47;102206.63;4465018;28;20183;-52
2023/12/15 09:32:30;;;;;;;2.92;2.53;;;;;;;21.42;44.12;102207.47;4452789;28;20090;-50
2023/12/15 09:34:40;;;;;;;2.60;2.05;;;;;;;21.42;44.28;102210.31;4454359;28;20050;-52
2023/12/15 09:36:50;;;;;;;2.45;1.73;;;;;;;21.60;43.23;102217.81;4465150;28;20047;-52
2023/12/15 09:39:01;;;;;;;3.38;1.80;;;;;;;21.63;43.21;102220.00;4463580;28;20089;-49
2023/12/15 09:41:13;;;;;;;2.10;1.50;;;;;;;21.67;43.33;102226.81;4462314;28;20042;-50
2023/12/15 09:43:23;;;;;;;2.00;1.60;;;;;;;21.67;43.38;102223.06;4469797;28;20131;-49
2023/12/15 09:45:34;;;;;;;2.60;1.45;;;;;;;21.73;43.01;102225.44;4469796;28;20035;-49
2023/12/15 09:47:47;;;;;;;2.55;1.73;;;;;;;21.79;42.75;102232.75;4470205;28;20041;-50
2023/12/15 09:50:02;;;;;;;3.17;1.88;;;;;;;21.76;43.13;102241.19;4469843;28;20038;-52
2023/12/15 09:52:14;;;;;;;3.17;1.67;;;;;;;21.76;43.44;102250.69;4469412;28;20839;-50
2023/12/15 09:54:25;;;;;;;2.60;1.50;;;;;;;21.74;43.16;102255.88;4469876;28;20478;-50
2023/12/15 09:56:35;;;;;;;2.50;1.65;;;;;;;21.77;43.07;102258.09;4469617;28;20047;-50
2023/12/15 09:58:46;;;;;;;4.13;1.63;;;;;;;21.85;43.28;102263.03;4469199;28;20416;-54
2023/12/15 10:00:57;;;;;;;3.53;1.90;;;;;;;21.88;43.06;102265.22;4473452;28;20046;-54
2023/12/15 10:03:26;;;;;;;2.42;2.08;;;;;;;21.90;42.81;102268.63;4453254;28;20059;-58
2023/12/15 10:05:37;;;;;;;2.45;1.80;;;;;;;21.90;43.41;102271.50;4462056;28;20133;-50
2023/12/15 10:07:47;;;;;;;3.88;2.10;;;;;;;21.88;43.48;102262.34;4467768;28;20047;-53